Time;durP1;ratioP1;P1;durP2;ratioP2;P2;SDS_P1;SDS_P2;PMS_P1;PMS_P2;Temp;Humidity;BMP_temperature;BMP_pressure;BME280_temperature;BME280_humidity;BME280_pressure;Samples;Min_cycle;Max_cycle;Signal;HPM_P1;HPM_P2
2023/01/02 00:01:36;;;;;;;13.55;5.15;;;;;;;14.94;74.05;100982.66;4985275;28;20034;-40
2023/01/02 00:04:01;;;;;;;12.10;5.32;;;;;;;15.09;73.67;100981.72;4986777;28;20080;-39
2023/01/02 00:06:27;;;;;;;11.40;5.20;;;;;;;15.20;73.91;100978.16;4983025;28;20117;-41
2023/01/02 00:08:52;;;;;;;14.70;4.93;;;;;;;15.13;73.33;100972.94;4986918;28;20497;-41
2023/01/02 00:11:17;;;;;;;11.05;4.80;;;;;;;15.06;73.68;100969.50;4982853;28;20046;-42
2023/01/02 00:13:43;;;;;;;11.35;4.55;;;;;;;15.05;74.11;100966.88;4987031;28;20057;-40
2023/01/02 00:16:08;;;;;;;9.95;4.63;;;;;;;15.11;73.95;100956.34;4983126;28;20049;-41
2023/01/02 00:18:33;;;;;;;14.32;5.07;;;;;;;14.92;73.93;100960.78;4986464;28;20042;-42
2023/01/02 00:21:03;;;;;;;10.65;4.97;;;;;;;15.25;73.41;100957.13;4986961;28;20117;-41
2023/01/02 00:23:29;;;;;;;12.93;5.30;;;;;;;15.16;73.71;100952.81;4984283;28;20054;-41
2023/01/02 00:25:54;;;;;;;9.85;4.78;;;;;;;15.28;73.29;100949.25;4989244;28;20389;-39
2023/01/02 00:28:19;;;;;;;12.63;4.88;;;;;;;15.36;72.61;100958.84;4985171;28;20064;-40
2023/01/02 00:30:45;;;;;;;10.07;5.05;;;;;;;15.15;73.31;100961.56;4988668;28;20035;-42
2023/01/02 00:33:10;;;;;;;10.70;5.07;;;;;;;15.12;73.50;100948.47;4985172;28;20073;-41
2023/01/02 00:35:37;;;;;;;13.52;5.45;;;;;;;14.85;74.67;100959.03;4989262;28;20582;-40
2023/01/02 00:38:02;;;;;;;13.32;5.28;;;;;;;15.20;73.30;100953.66;4988544;28;20097;-40
2023/01/02 00:40:27;;;;;;;9.68;5.25;;;;;;;15.27;73.53;100958.00;4985288;28;20106;-41
2023/01/02 00:42:53;;;;;;;13.60;5.43;;;;;;;15.12;74.15;100958.97;4988832;28;20384;-40
2023/01/02 00:45:18;;;;;;;11.38;5.60;;;;;;;15.21;73.92;100961.53;4985321;28;20054;-40
2023/01/02 00:47:43;;;;;;;13.05;5.45;;;;;;;14.83;75.32;100953.78;4987449;28;20412;-41
2023/01/02 00:50:09;;;;;;;13.20;5.55;;;;;;;15.18;73.95;100950.19;4982779;28;20042;-42
2023/01/02 00:52:34;;;;;;;14.10;5.15;;;;;;;14.99;74.85;100952.00;4986090;28;20461;-39
2023/01/02 00:54:59;;;;;;;13.73;5.50;;;;;;;15.38;73.63;100954.44;4985845;28;20034;-39
2023/01/02 00:57:25;;;;;;;10.05;5.15;;;;;;;15.35;73.53;100951.84;4982072;28;20118;-40
2023/01/02 00:59:50;;;;;;;10.77;5.18;;;;;;;15.26;73.97;100953.63;4986630;28;20045;-43
2023/01/02 01:02:15;;;;;;;14.57;5.60;;;;;;;15.43;73.26;100946.53;4982220;28;20081;-40
2023/01/02 01:04:40;;;;;;;10.07;5.03;;;;;;;15.47;72.66;100943.03;4985563;28;20468;-40
2023/01/02 01:07:06;;;;;;;10.15;5.20;;;;;;;15.32;73.46;100936.09;4984327;28;20507;-40
2023/01/02 01:09:31;;;;;;;12.27;5.18;;;;;;;15.37;73.44;100922.91;4982473;28;20031;-42
2023/01/02 01:11:56;;;;;;;11.15;5.65;;;;;;;15.42;73.03;100919.41;4985752;28;20026;-39
2023/01/02 01:14:22;;;;;;;11.50;5.13;;;;;;;15.50;72.72;100918.47;4984167;28;20095;-43
2023/01/02 01:16:48;;;;;;;13.23;5.65;;;;;;;15.52;72.50;100904.50;4988417;28;20129;-40
2023/01/02 01:19:13;;;;;;;14.85;5.70;;;;;;;15.37;73.33;100910.66;4983737;28;20098;-40
2023/01/02 01:21:38;;;;;;;13.93;5.70;;;;;;;15.30;73.34;100902.84;4987589;28;20123;-39
2023/01/02 01:24:04;;;;;;;12.50;5.38;;;;;;;15.46;73.08;100908.88;4988448;28;20038;-40
2023/01/02 01:26:29;;;;;;;12.77;5.57;;;;;;;15.48;72.85;100908.00;4983650;28;20039;-44
2023/01/02 01:28:55;;;;;;;12.68;5.75;;;;;;;15.37;73.56;100904.53;4986379;28;20041;-41
2023/01/02 01:31:22;;;;;;;10.80;5.80;;;;;;;15.34;73.47;100908.06;4982588;28;20097;-41
2023/01/02 01:33:48;;;;;;;14.02;5.35;;;;;;;15.48;73.16;100910.63;4987083;28;20038;-40
2023/01/02 01:36:23;;;;;;;10.90;5.30;;;;;;;15.45;73.18;100900.13;4984046;28;20057;-41
2023/01/02 01:38:49;;;;;;;12.82;5.60;;;;;;;15.34;73.55;100907.19;4987505;28;20034;-42
2023/01/02 01:41:18;;;;;;;10.38;5.30;;;;;;;15.41;73.31;100911.53;4983811;28;20100;-39
2023/01/02 01:43:55;;;;;;;11.02;5.40;;;;;;;15.37;73.59;100917.66;4986335;28;20073;-40
2023/01/02 01:46:35;;;;;;;11.25;5.60;;;;;;;15.45;73.19;100918.50;4982831;28;20034;-40
2023/01/02 01:49:13;;;;;;;13.30;5.55;;;;;;;15.31;73.54;100926.47;4987593;28;20068;-40
2023/01/02 01:51:45;;;;;;;9.70;5.38;;;;;;;15.26;73.63;100922.09;4983420;28;20037;-42
2023/01/02 01:54:14;;;;;;;12.68;5.57;;;;;;;15.36;73.58;100922.09;4981521;28;20093;-44
2023/01/02 01:56:44;;;;;;;10.15;5.18;;;;;;;15.49;73.40;100919.38;4985240;28;20038;-41
2023/01/02 01:59:11;;;;;;;10.85;5.47;;;;;;;15.53;73.03;100927.25;4980775;28;20048;-40
2023/01/02 02:01:40;;;;;;;11.40;6.13;;;;;;;15.30;73.88;100930.00;4986284;28;20065;-40
2023/01/02 02:04:07;;;;;;;12.43;5.97;;;;;;;15.51;73.13;100928.97;4988255;28;20137;-41
2023/01/02 02:06:32;;;;;;;11.57;5.90;;;;;;;15.39;73.56;100927.31;4984639;28;20161;-40
2023/01/02 02:09:03;;;;;;;12.23;6.28;;;;;;;15.41;73.48;100929.94;4987842;28;20086;-40
2023/01/02 02:11:29;;;;;;;15.38;6.20;;;;;;;15.28;73.38;100931.75;4980523;28;20398;-40
2023/01/02 02:13:59;;;;;;;12.32;5.88;;;;;;;15.27;73.87;100927.38;4984219;28;20099;-39
2023/01/02 02:16:40;;;;;;;12.77;6.15;;;;;;;15.35;73.77;100938.72;4980251;28;20058;-39
2023/01/02 02:19:15;;;;;;;12.95;6.50;;;;;;;15.21;74.26;100931.78;4983033;28;20042;-41
2023/01/02 02:22:02;;;;;;;16.40;6.43;;;;;;;15.29;73.90;100936.13;4980010;28;20081;-39
2023/01/02 02:24:51;;;;;;;14.18;6.88;;;;;;;15.16;74.77;100937.06;4980188;28;20093;-41
2023/01/02 02:27:56;;;;;;;11.35;6.55;;;;;;;15.20;74.79;100932.66;4984074;28;20042;-40
2023/01/02 02:30:23;;;;;;;12.55;6.88;;;;;;;15.04;74.98;100939.72;4976320;28;20120;-38
2023/01/02 02:33:17;;;;;;;14.70;7.13;;;;;;;15.19;75.12;100942.28;4983954;28;20129;-39
2023/01/02 02:35:48;;;;;;;16.88;7.68;;;;;;;15.04;75.81;100939.72;4979913;28;20049;-40
2023/01/02 02:38:51;;;;;;;13.10;7.55;;;;;;;15.06;76.07;100937.09;4979587;28;20046;-40
2023/01/02 02:41:16;;;;;;;16.30;7.68;;;;;;;15.15;75.61;100924.78;4979878;28;20048;-39
2023/01/02 02:44:00;;;;;;;15.68;7.90;;;;;;;15.15;75.36;100916.91;4983907;28;20121;-49
2023/01/02 02:46:57;;;;;;;15.57;7.82;;;;;;;14.96;76.22;100928.38;4980344;28;20046;-40
2023/01/02 02:49:50;;;;;;;14.45;7.90;;;;;;;15.13;75.64;100910.78;4980480;28;20031;-40
2023/01/02 02:52:24;;;;;;;17.33;7.95;;;;;;;15.13;75.71;100907.28;4983407;28;20048;-42
2023/01/02 02:55:09;;;;;;;;;;;;;;;14.97;75.90;100910.00;4986595;28;20042;-40
2023/01/02 02:57:36;;;;;;;14.05;8.15;;;;;;;14.95;76.24;100910.88;4982872;28;19918;-39
2023/01/02 03:00:07;;;;;;;16.52;8.48;;;;;;;14.89;76.71;100901.25;4987965;28;20415;-42
2023/01/02 03:02:33;;;;;;;20.88;9.02;;;;;;;14.87;77.28;100907.41;4983860;28;20034;-41
2023/01/02 03:05:04;;;;;;;16.35;9.35;;;;;;;14.97;76.33;100901.25;4983783;28;20459;-43
2023/01/02 03:07:43;;;;;;;16.25;8.32;;;;;;;15.20;75.71;100893.25;4979670;28;20045;-42
2023/01/02 03:10:34;;;;;;;19.70;8.38;;;;;;;14.88;76.43;100902.13;4980040;28;20525;-39
2023/01/02 03:13:17;;;;;;;18.00;8.63;;;;;;;14.69;77.19;100905.72;4982413;28;20047;-40
2023/01/02 03:16:04;;;;;;;20.20;8.88;;;;;;;14.95;76.70;100909.13;4981005;28;20031;-40
2023/01/02 03:18:57;;;;;;;18.65;8.18;;;;;;;14.77;77.07;100903.94;4981551;28;20376;-42
2023/01/02 03:21:22;;;;;;;13.38;7.43;;;;;;;14.87;76.80;100910.03;4981906;28;20046;-39
2023/01/02 03:23:48;;;;;;;15.20;7.63;;;;;;;14.65;77.70;100901.34;4987192;28;20045;-40
2023/01/02 03:26:21;;;;;;;14.38;7.15;;;;;;;14.73;77.33;100893.47;4984749;28;20030;-42
2023/01/02 03:28:53;;;;;;;14.90;7.10;;;;;;;15.01;76.41;100901.22;4991939;28;20036;-39
2023/01/02 03:31:23;;;;;;;20.38;8.02;;;;;;;15.12;75.82;100902.94;4987881;28;20042;-40
2023/01/02 03:33:54;;;;;;;14.57;7.00;;;;;;;14.91;76.69;100909.16;4989185;28;20038;-41
2023/01/02 03:36:24;;;;;;;16.00;6.85;;;;;;;14.77;76.92;100909.19;4983622;28;20121;-39
2023/01/02 03:39:03;;;;;;;13.95;7.38;;;;;;;14.86;76.31;100913.53;4987080;28;20046;-43
2023/01/02 03:41:36;;;;;;;15.70;7.00;;;;;;;14.98;76.23;100922.25;4983589;28;20038;-41
2023/01/02 03:44:04;;;;;;;14.73;7.10;;;;;;;14.77;76.33;100917.06;4987958;28;20069;-42
2023/01/02 03:46:54;;;;;;;15.80;7.28;;;;;;;15.03;76.71;100920.47;4983491;28;20505;-46
2023/01/02 03:49:50;;;;;;;15.95;7.38;;;;;;;14.87;77.68;100920.53;4983403;28;20046;-43
2023/01/02 03:52:15;;;;;;;18.45;7.82;;;;;;;14.75;77.65;100924.09;4982879;28;20376;-40
2023/01/02 03:54:41;;;;;;;16.40;7.30;;;;;;;14.80;77.40;100926.69;4986251;28;20093;-40
2023/01/02 03:57:20;;;;;;;18.02;7.20;;;;;;;14.83;77.43;100926.66;4986417;28;20035;-40
2023/01/02 04:00:01;;;;;;;15.82;7.10;;;;;;;14.74;77.31;100930.19;4983120;28;20042;-40
2023/01/02 04:02:48;;;;;;;16.65;7.18;;;;;;;14.60;78.57;100930.22;4982256;28;21968;-40
2023/01/02 04:05:19;;;;;;;17.27;6.95;;;;;;;14.65;78.52;100916.22;4983146;28;20049;-39
2023/01/02 04:08:06;;;;;;;11.65;6.82;;;;;;;14.92;77.61;100921.41;4986291;28;20034;-41
2023/01/02 04:10:34;;;;;;;15.15;7.13;;;;;;;14.75;77.90;100931.09;4982461;28;20080;-41
2023/01/02 04:13:07;;;;;;;14.27;7.07;;;;;;;14.96;77.25;100931.00;4986443;28;20041;-40
2023/01/02 04:15:36;;;;;;;15.90;7.32;;;;;;;14.87;77.28;100942.41;4982519;28;20061;-39
2023/01/02 04:18:07;;;;;;;15.15;7.30;;;;;;;14.80;78.12;100939.81;4986174;28;20042;-40
2023/01/02 04:20:37;;;;;;;17.75;7.95;;;;;;;14.55;78.30;100949.47;4982172;28;20573;-40
2023/01/02 04:23:10;;;;;;;14.85;7.68;;;;;;;14.32;79.57;100949.50;4986128;28;21373;-40
2023/01/02 04:25:43;;;;;;;14.40;6.20;;;;;;;13.82;79.69;100971.31;4982231;28;20509;-39
2023/01/02 04:28:14;;;;;;;8.00;4.15;;;;;;;13.92;77.96;100977.41;4982456;28;20038;-39
2023/01/02 04:30:45;;;;;;;5.45;3.67;;;;;;;13.68;78.05;100987.84;4985949;28;20030;-40
2023/01/02 04:33:13;;;;;;;5.45;3.20;;;;;;;13.51;77.82;101003.53;4982365;28;20567;-40
2023/01/02 04:35:39;;;;;;;4.80;2.80;;;;;;;13.68;77.04;101007.06;4986824;28;20031;-40
2023/01/02 04:38:09;;;;;;;4.07;2.50;;;;;;;13.54;76.84;101021.00;4986360;28;20096;-41
2023/01/02 04:40:36;;;;;;;3.47;2.00;;;;;;;13.39;76.51;101009.59;4981627;28;20046;-36
2023/01/02 04:43:06;;;;;;;2.20;1.80;;;;;;;13.41;76.30;101020.09;4986294;28;20031;-40
2023/01/02 04:45:31;;;;;;;2.60;1.60;;;;;;;13.36;75.81;101027.03;4982445;28;20034;-41
2023/01/02 04:47:56;;;;;;;2.92;1.48;;;;;;;13.19;76.36;101029.56;4985887;28;20399;-39
2023/01/02 04:50:22;;;;;;;3.08;1.83;;;;;;;13.21;76.56;101043.56;4981216;28;20070;-37
2023/01/02 04:52:47;;;;;;;2.58;1.70;;;;;;;13.06;76.76;101053.88;4984213;28;20181;-41
2023/01/02 04:55:12;;;;;;;3.70;1.55;;;;;;;13.09;76.50;101058.28;4985448;28;20092;-40
2023/01/02 04:57:38;;;;;;;2.50;1.52;;;;;;;13.31;75.29;101054.94;4980022;28;20030;-44
2023/01/02 05:00:06;;;;;;;2.00;1.30;;;;;;;13.07;76.03;101063.50;4986633;28;20402;-40
2023/01/02 05:02:35;;;;;;;1.50;1.20;;;;;;;13.15;75.76;101069.69;4982964;28;20305;-39
2023/01/02 05:05:01;;;;;;;3.85;1.42;;;;;;;12.79;77.18;101077.28;4988984;28;20037;-40
2023/01/02 05:07:26;;;;;;;1.70;1.20;;;;;;;12.93;76.56;101086.06;4984402;28;20038;-40
2023/01/02 05:09:52;;;;;;;2.20;1.30;;;;;;;13.04;75.99;101089.66;4986261;28;20402;-41
2023/01/02 05:12:17;;;;;;;2.10;1.30;;;;;;;13.02;75.93;101091.38;4981759;28;20479;-39
2023/01/02 05:14:42;;;;;;;2.67;1.55;;;;;;;13.32;75.30;101098.59;4985139;28;20046;-41
2023/01/02 05:17:07;;;;;;;1.90;1.30;;;;;;;13.05;76.30;101114.97;4980692;28;20045;-41
2023/01/02 05:19:33;;;;;;;3.10;1.50;;;;;;;13.08;75.76;101107.13;4987234;28;20096;-40
2023/01/02 05:24:42;;;;;;;3.88;1.88;;;;;;;12.75;76.96;101128.66;4984085;28;20053;-41
2023/01/02 05:27:07;;;;;;;4.50;2.38;;;;;;;12.78;77.00;101135.69;4985027;28;20495;-42
2023/01/02 05:29:32;;;;;;;5.72;2.60;;;;;;;12.92;76.71;101140.19;4984416;28;20110;-42
2023/01/02 05:31:58;;;;;;;7.05;2.67;;;;;;;12.51;78.00;101154.59;4985951;28;20035;-41
2023/01/02 05:34:23;;;;;;;6.95;3.05;;;;;;;12.60;78.09;101158.19;4982136;28;20041;-41
2023/01/02 05:36:48;;;;;;;7.05;3.00;;;;;;;12.99;76.54;101156.81;4985184;28;20042;-40
2023/01/02 05:39:14;;;;;;;5.55;2.40;;;;;;;12.82;76.25;101164.50;4981162;28;20034;-39
2023/01/02 05:41:40;;;;;;;4.97;1.67;;;;;;;12.26;77.41;101169.16;4984606;28;20415;-41
2023/01/02 05:44:07;;;;;;;6.20;1.70;;;;;;;12.38;76.91;101177.13;4984695;28;20053;-41
2023/01/02 05:46:33;;;;;;;4.57;1.70;;;;;;;12.38;76.50;101192.81;4981543;28;20038;-41
2023/01/02 05:48:58;;;;;;;4.53;1.50;;;;;;;12.44;76.48;101208.56;4984275;28;20100;-42
2023/01/02 05:51:24;;;;;;;3.22;1.38;;;;;;;12.58;75.86;101203.50;4979498;28;20450;-40
2023/01/02 05:53:52;;;;;;;5.88;1.30;;;;;;;12.73;75.67;101205.41;4984544;28;20030;-42
2023/01/02 05:56:20;;;;;;;4.63;1.50;;;;;;;12.43;76.13;101213.81;4981172;28;20037;-40
2023/01/02 05:58:47;;;;;;;5.20;1.35;;;;;;;12.23;76.43;101223.16;4985070;28;20066;-41
2023/01/02 06:01:15;;;;;;;5.03;1.25;;;;;;;12.46;76.22;101221.69;4981606;28;20034;-45
2023/01/02 06:03:48;;;;;;;7.38;1.52;;;;;;;12.54;75.79;101227.88;4985005;28;20117;-40
2023/01/02 06:06:14;;;;;;;3.47;1.35;;;;;;;12.46;75.88;101233.00;4981481;28;20054;-39
2023/01/02 06:08:40;;;;;;;5.65;1.50;;;;;;;12.17;76.41;101232.69;4982704;28;20037;-40
2023/01/02 06:11:06;;;;;;;5.35;1.33;;;;;;;12.35;75.60;101238.97;4984775;28;20042;-41
2023/01/02 06:13:33;;;;;;;4.57;1.20;;;;;;;12.49;74.48;101240.03;4981486;28;20045;-41
2023/01/02 06:16:01;;;;;;;7.97;1.60;;;;;;;12.33;75.48;101235.47;4985578;28;20066;-41
2023/01/02 06:18:27;;;;;;;6.55;1.38;;;;;;;12.51;74.78;101246.13;4982317;28;20240;-41
2023/01/02 06:21:04;;;;;;;11.75;1.77;;;;;;;12.51;74.58;101252.25;4984887;28;20113;-41
2023/01/02 06:23:29;;;;;;;6.55;1.50;;;;;;;12.64;74.93;101257.63;4981178;28;20114;-43
2023/01/02 06:25:55;;;;;;;6.22;1.77;;;;;;;12.67;74.69;101260.28;4984406;28;20125;-42
2023/01/02 06:28:20;;;;;;;7.18;1.70;;;;;;;12.83;74.08;101267.41;4980385;28;20496;-40
2023/01/02 06:30:46;;;;;;;7.55;2.00;;;;;;;12.52;74.87;101274.94;4984242;28;20616;-40
2023/01/02 06:33:11;;;;;;;8.20;1.88;;;;;;;12.37;75.51;101276.50;4980792;28;20030;-42
2023/01/02 06:35:37;;;;;;;7.65;2.10;;;;;;;12.53;75.11;101281.03;4984685;28;20125;-42
2023/01/02 06:38:02;;;;;;;12.43;2.20;;;;;;;12.74;74.26;101283.03;4984230;28;20038;-43
2023/01/02 06:40:28;;;;;;;8.23;1.70;;;;;;;12.29;75.38;101286.84;4980514;28;20450;-41
2023/01/02 06:42:53;;;;;;;8.80;1.80;;;;;;;12.79;74.25;101292.69;4985193;28;20026;-41
2023/01/02 06:45:18;;;;;;;9.57;2.00;;;;;;;12.66;74.73;101296.03;4980421;28;20057;-40
2023/01/02 06:47:44;;;;;;;7.95;2.00;;;;;;;12.41;75.37;101301.81;4984509;28;20034;-41
2023/01/02 06:50:09;;;;;;;8.80;2.22;;;;;;;12.67;75.04;101309.97;4980611;28;20042;-41
2023/01/02 06:52:35;;;;;;;8.13;1.80;;;;;;;12.25;75.49;101305.09;4984210;28;20077;-40
2023/01/02 06:55:00;;;;;;;4.68;1.75;;;;;;;11.87;77.16;101315.00;4984301;28;20077;-41
2023/01/02 06:57:28;;;;;;;7.03;1.70;;;;;;;12.50;75.43;101317.63;4980412;28;20057;-41
2023/01/02 06:59:53;;;;;;;7.80;1.77;;;;;;;12.53;74.94;101323.75;4983841;28;20553;-42
2023/01/02 07:02:19;;;;;;;6.55;1.95;;;;;;;12.67;74.83;101323.94;4984634;28;20034;-43
2023/01/02 07:04:44;;;;;;;7.82;2.10;;;;;;;12.53;75.45;101329.00;4990527;28;20035;-41
2023/01/02 07:07:09;;;;;;;5.93;2.50;;;;;;;12.11;76.52;101339.75;4987064;28;20041;-40
2023/01/02 07:09:35;;;;;;;5.30;2.38;;;;;;;12.27;76.80;101348.69;4990733;28;20418;-41
2023/01/02 07:12:00;;;;;;;7.32;2.83;;;;;;;12.22;75.80;101363.44;4990705;28;20035;-41
2023/01/02 07:14:25;;;;;;;7.35;2.55;;;;;;;12.18;76.17;101369.47;4986671;28;20120;-40
2023/01/02 07:16:51;;;;;;;7.38;2.50;;;;;;;12.05;76.49;101373.63;4989887;28;20087;-40
2023/01/02 07:19:16;;;;;;;4.35;2.25;;;;;;;12.06;76.65;101383.25;4986724;28;20034;-41
2023/01/02 07:21:42;;;;;;;4.60;2.17;;;;;;;12.52;75.38;101373.44;4990311;28;20104;-42
2023/01/02 07:24:14;;;;;;;5.70;1.90;;;;;;;12.37;75.72;101383.69;4987591;28;20085;-51
2023/01/02 07:26:40;;;;;;;5.20;1.85;;;;;;;12.26;75.23;101393.97;4989453;28;20121;-41
2023/01/02 07:29:05;;;;;;;3.63;1.75;;;;;;;12.36;75.44;101390.66;4991294;28;20026;-39
2023/01/02 07:31:31;;;;;;;6.15;1.88;;;;;;;12.01;76.05;101399.72;4985557;28;20226;-41
2023/01/02 07:33:56;;;;;;;4.85;2.00;;;;;;;12.26;75.57;101406.19;4989377;28;20057;-40
2023/01/02 07:36:23;;;;;;;7.03;2.03;;;;;;;12.32;75.72;101416.75;4986935;28;20578;-41
2023/01/02 07:38:52;;;;;;;4.13;2.10;;;;;;;12.16;75.96;101424.34;4992129;28;20038;-41
2023/01/02 07:41:20;;;;;;;5.43;2.13;;;;;;;12.25;75.66;101428.84;4987536;28;20129;-41
2023/01/02 07:43:46;;;;;;;5.85;2.20;;;;;;;12.41;75.04;101430.81;4992243;28;20119;-43
2023/01/02 07:46:14;;;;;;;4.07;2.25;;;;;;;12.49;74.57;101442.28;4986940;28;20475;-41
2023/01/02 07:48:39;;;;;;;10.95;2.40;;;;;;;12.36;74.11;101444.69;4990948;28;20042;-41
2023/01/02 07:51:06;;;;;;;6.53;2.15;;;;;;;11.88;76.11;101450.88;4990452;28;20123;-40
2023/01/02 07:53:32;;;;;;;6.00;2.25;;;;;;;11.90;76.34;101464.84;4986507;28;20062;-41
2023/01/02 07:55:58;;;;;;;5.40;2.10;;;;;;;11.97;75.93;101471.94;4989177;28;20129;-41
2023/01/02 07:58:24;;;;;;;5.43;1.98;;;;;;;12.21;75.24;101471.47;4985231;28;20038;-39
2023/01/02 08:00:49;;;;;;;4.35;2.03;;;;;;;12.18;74.77;101460.97;4990347;28;20093;-41
2023/01/02 08:03:15;;;;;;;8.50;1.75;;;;;;;12.35;74.21;101483.03;4988841;28;20034;-40
2023/01/02 08:05:40;;;;;;;2.92;1.00;;;;;;;11.93;74.94;101501.47;4992283;28;20077;-40
2023/01/02 08:08:06;;;;;;;3.88;1.13;;;;;;;11.87;75.22;101500.50;4991828;28;20057;-43
2023/01/02 08:10:31;;;;;;;3.83;0.98;;;;;;;12.07;75.08;101506.97;4989620;28;20455;-40
2023/01/02 08:12:57;;;;;;;3.28;0.90;;;;;;;11.87;74.60;101493.53;4988494;28;20037;-42
2023/01/02 08:15:24;;;;;;;4.07;1.00;;;;;;;11.92;74.17;101506.69;4983681;28;20034;-42
2023/01/02 08:17:49;;;;;;;4.85;0.98;;;;;;;11.70;74.34;101502.78;4988593;28;20042;-42
2023/01/02 08:20:15;;;;;;;3.25;0.70;;;;;;;12.27;72.61;101507.28;4985403;28;20046;-41
2023/01/02 08:22:40;;;;;;;3.45;0.90;;;;;;;12.19;73.21;101515.91;4987650;28;20073;-40
2023/01/02 08:25:06;;;;;;;5.75;1.00;;;;;;;12.01;72.95;101509.47;4988176;28;20579;-41
2023/01/02 08:27:32;;;;;;;5.82;0.93;;;;;;;12.11;72.24;101520.09;4984612;28;20038;-40
2023/01/02 08:29:57;;;;;;;4.63;0.88;;;;;;;11.98;73.00;101527.69;4987763;28;20084;-44
2023/01/02 08:32:22;;;;;;;3.38;0.70;;;;;;;12.01;72.66;101535.59;4984983;28;20058;-42
2023/01/02 08:34:48;;;;;;;4.30;0.80;;;;;;;12.10;72.10;101536.63;4990492;28;20034;-40
2023/01/02 08:37:13;;;;;;;6.05;0.95;;;;;;;11.85;72.32;101546.59;4986285;28;20484;-42
2023/01/02 08:39:38;;;;;;;3.83;0.80;;;;;;;12.02;71.53;101553.00;4989781;28;20041;-44
2023/01/02 08:42:04;;;;;;;3.50;0.80;;;;;;;12.05;71.81;101550.47;4990734;28;20049;-42
2023/01/02 08:44:29;;;;;;;9.50;0.80;;;;;;;11.73;72.45;101562.88;4985999;28;20030;-41
2023/01/02 08:46:54;;;;;;;3.78;0.70;;;;;;;11.96;72.13;101564.22;4989645;28;20050;-40
2023/01/02 08:49:20;;;;;;;4.38;0.80;;;;;;;11.75;72.98;101569.94;4985777;28;20046;-41
2023/01/02 08:51:46;;;;;;;5.35;1.10;;;;;;;11.99;71.88;101571.25;4987139;28;20045;-42
2023/01/02 08:54:11;;;;;;;5.97;0.95;;;;;;;12.24;70.82;101570.84;4982331;28;20038;-41
2023/01/02 08:56:37;;;;;;;3.20;0.80;;;;;;;11.98;71.56;101572.09;4986920;28;20105;-41
2023/01/02 08:59:06;;;;;;;5.20;1.00;;;;;;;11.86;71.71;101578.00;4986244;28;20035;-41
2023/01/02 09:01:32;;;;;;;6.47;0.98;;;;;;;12.09;71.31;101573.19;4980704;28;20043;-42
2023/01/02 09:03:58;;;;;;;4.15;1.00;;;;;;;12.00;71.48;101570.41;4986161;28;20438;-42
2023/01/02 09:06:25;;;;;;;4.22;0.80;;;;;;;11.96;71.27;101579.91;4981722;28;20033;-40
2023/01/02 09:08:54;;;;;;;2.28;0.60;;;;;;;12.15;70.57;101588.97;4986437;28;20104;-41
2023/01/02 09:11:32;;;;;;;4.82;0.90;;;;;;;12.17;70.40;101592.50;4982157;28;20038;-40
2023/01/02 09:13:58;;;;;;;5.15;0.85;;;;;;;12.22;70.33;101603.94;4986856;28;20030;-44
2023/01/02 09:16:24;;;;;;;3.08;0.90;;;;;;;12.39;70.28;101607.72;4982071;28;20038;-41
2023/01/02 09:18:50;;;;;;;5.40;1.10;;;;;;;12.14;71.35;101609.00;4986060;28;20041;-47
2023/01/02 09:21:16;;;;;;;4.20;1.20;;;;;;;12.26;70.27;101615.34;4980757;28;20034;-44
2023/01/02 09:23:41;;;;;;;6.10;1.38;;;;;;;12.10;70.99;101608.94;4985862;28;20042;-42
2023/01/02 09:26:09;;;;;;;6.80;1.10;;;;;;;12.33;70.22;101611.97;4986210;28;20038;-41
2023/01/02 09:28:35;;;;;;;6.25;1.20;;;;;;;12.36;70.17;101614.63;4982044;28;20039;-43
2023/01/02 09:31:11;;;;;;;4.03;1.05;;;;;;;12.47;69.97;101610.47;4985616;28;20031;-43
2023/01/02 09:33:37;;;;;;;6.05;1.00;;;;;;;12.36;70.07;101612.91;4978521;28;20117;-42
2023/01/02 09:36:04;;;;;;;6.15;1.33;;;;;;;12.40;70.04;101603.38;4986319;28;20045;-47
2023/01/02 09:38:30;;;;;;;7.65;1.40;;;;;;;12.39;69.51;101599.00;4981834;28;20061;-44
2023/01/02 09:40:57;;;;;;;6.20;1.17;;;;;;;12.70;69.02;101603.88;4985643;28;20062;-42
2023/01/02 09:43:28;;;;;;;5.38;1.20;;;;;;;12.68;68.94;101603.00;4981305;28;20030;-42
2023/01/02 09:45:54;;;;;;;4.95;1.25;;;;;;;12.90;68.44;101612.94;4985629;28;20092;-45
2023/01/02 09:48:21;;;;;;;3.90;1.00;;;;;;;13.04;68.50;101607.94;4981667;28;20058;-42
2023/01/02 09:50:48;;;;;;;6.03;1.00;;;;;;;12.63;69.21;101609.88;4985402;28;20030;-45
2023/01/02 09:53:14;;;;;;;5.43;1.40;;;;;;;12.84;68.76;101620.69;4981755;28;20038;-42
2023/01/02 09:55:45;;;;;;;6.65;1.20;;;;;;;12.76;68.62;101642.34;4985824;28;20118;-42
2023/01/02 09:58:39;;;;;;;6.45;1.00;;;;;;;12.75;68.85;101646.69;4981804;28;20065;-42
2023/01/02 10:01:11;;;;;;;5.25;0.88;;;;;;;12.48;69.97;101643.63;4985498;28;20057;-41
2023/01/02 10:03:51;;;;;;;7.53;1.20;;;;;;;12.65;69.42;101646.53;4981385;28;20084;-43
2023/01/02 10:06:20;;;;;;;4.82;0.98;;;;;;;13.08;68.49;101656.84;4981204;28;20038;-41
2023/01/02 10:09:04;;;;;;;4.85;1.00;;;;;;;12.88;68.53;101674.84;4985073;28;20035;-45
2023/01/02 10:11:48;;;;;;;5.40;1.10;;;;;;;12.89;69.01;101671.38;4980626;28;20586;-44
2023/01/02 10:14:46;;;;;;;7.13;1.43;;;;;;;13.12;68.60;101663.91;4981556;28;20038;-39
2023/01/02 10:17:16;;;;;;;5.18;1.10;;;;;;;12.81;68.94;101654.66;4980306;28;20105;-44
2023/01/02 10:19:51;;;;;;;6.15;1.35;;;;;;;12.82;69.10;101658.16;4984457;28;20487;-42
2023/01/02 10:22:27;;;;;;;7.30;1.25;;;;;;;12.75;69.35;101654.56;4981686;28;20493;-44
2023/01/02 10:25:10;;;;;;;6.45;1.20;;;;;;;12.70;69.05;101656.22;4984935;28;20030;-41
2023/01/02 10:27:46;;;;;;;6.43;1.50;;;;;;;12.95;68.82;101652.28;4982243;28;20038;-43
2023/01/02 10:30:19;;;;;;;6.35;1.25;;;;;;;12.65;70.10;101643.91;4986086;28;20033;-41
2023/01/02 10:32:54;;;;;;;9.20;1.25;;;;;;;12.48;70.18;101661.94;4981695;28;20054;-43
2023/01/02 10:35:44;;;;;;;11.40;1.30;;;;;;;12.65;69.90;101659.59;4979939;28;20038;-41
2023/01/02 10:38:12;;;;;;;5.28;1.15;;;;;;;12.85;69.07;101660.84;4979785;28;20133;-42
2023/01/02 10:40:40;;;;;;;7.65;1.33;;;;;;;12.36;70.80;101662.59;4983911;28;20040;-43
2023/01/02 10:43:07;;;;;;;5.00;1.10;;;;;;;12.76;69.65;101664.16;4983292;28;20062;-43
2023/01/02 10:45:32;;;;;;;4.72;1.00;;;;;;;12.80;69.81;101670.34;4980127;28;20034;-43
2023/01/02 10:47:58;;;;;;;5.63;1.05;;;;;;;12.75;69.79;101666.75;4983867;28;20042;-43
2023/01/02 10:50:31;;;;;;;4.95;1.23;;;;;;;12.89;69.63;101673.09;4978903;28;20105;-42
2023/01/02 10:53:32;;;;;;;4.40;1.13;;;;;;;12.97;69.87;101679.34;4984626;28;20030;-41
2023/01/02 10:56:04;;;;;;;4.70;1.00;;;;;;;13.02;69.01;101670.72;4979671;28;20043;-46
2023/01/02 10:58:32;;;;;;;5.40;1.13;;;;;;;12.87;69.17;101675.69;4980192;28;20095;-43
2023/01/02 11:01:24;;;;;;;5.00;1.08;;;;;;;12.84;69.64;101677.38;4984565;28;20522;-43
2023/01/02 11:04:10;;;;;;;9.32;1.23;;;;;;;13.15;68.86;101676.19;4979525;28;20041;-43
2023/01/02 11:06:49;;;;;;;5.88;1.17;;;;;;;12.94;69.19;101685.41;4979704;28;20346;-41
2023/01/02 11:09:14;;;;;;;6.25;0.98;;;;;;;13.45;68.04;101691.47;4981268;28;20039;-43
2023/01/02 11:11:54;;;;;;;7.32;1.60;;;;;;;13.18;68.36;101695.44;4985061;28;20414;-45
2023/01/02 11:14:38;;;;;;;7.97;1.60;;;;;;;13.53;67.86;101692.47;4981211;28;20574;-41
2023/01/02 11:17:14;;;;;;;6.72;1.30;;;;;;;13.20;68.25;101705.94;4984824;28;20035;-40
2023/01/02 11:19:43;;;;;;;6.05;1.40;;;;;;;13.24;68.61;101708.63;4981020;28;20030;-43
2023/01/02 11:22:11;;;;;;;6.10;1.40;;;;;;;13.24;68.45;101718.19;4979542;28;20041;-43
2023/01/02 11:24:58;;;;;;;9.88;1.42;;;;;;;13.31;67.86;101715.72;4984236;28;20041;-41
2023/01/02 11:27:41;;;;;;;8.38;1.33;;;;;;;13.30;68.15;101713.94;4982239;28;20033;-42
2023/01/02 11:30:08;;;;;;;8.65;1.10;;;;;;;13.28;68.50;101710.44;4985374;28;20042;-40
2023/01/02 11:32:43;;;;;;;8.45;1.60;;;;;;;13.60;67.09;101708.28;4981479;28;20057;-42
2023/01/02 11:35:32;;;;;;;6.97;1.10;;;;;;;13.62;66.91;101703.94;4980394;28;20446;-51
2023/01/02 11:38:00;;;;;;;7.90;1.23;;;;;;;13.73;66.62;101694.50;4983793;28;20030;-41